East Hampstead, New Hampshire
Current Conditions -  °F | °C
As of 11:54 PM on Monday 22 Dec 2014 (Local Time) from KLWM Reporting Station
Haze Haze  
Wind Chill: 30°   Ceiling: 5000
Heat Index: 35°   Visibility: 5mi
Dew Point: 34°   Wind: 6mph
Humidity: 96%   Direction: 40°NE
Pressure: 30.3"   Gusts: NA
Location:  42.89°N, 71.14°W
Report Text: KLWM 230454Z AUTO 04005KT 5SM BR FEW002 OVC050 02/01 A3030 RMK AO2 SLP264 T00170011 400441011
Loading
Personal Weather Stations






























Interactive Weather Map New forecast layout! Learn more

10-Day Weather Forecast

Advertisements
Track Severe Weather on mobile